Time;durP1;ratioP1;P1;durP2;ratioP2;P2;SDS_P1;SDS_P2;PMS_P1;PMS_P2;Temp;Humidity;BMP_temperature;BMP_pressure;BME280_temperature;BME280_humidity;BME280_pressure;Samples;Min_cycle;Max_cycle;Signal;HPM_P1;HPM_P2
2022/12/27 00:00:51;;;;;;;22.88;5.65;;;;;;;7.24;100.00;101961.22;5113489;28;20336;-50
2022/12/27 00:03:18;;;;;;;18.65;5.82;;;;;;;7.40;100.00;101962.41;5113424;28;20032;-53
2022/12/27 00:05:45;;;;;;;18.27;5.75;;;;;;;7.25;100.00;101952.25;5115902;28;20104;-53
2022/12/27 00:08:10;;;;;;;9.88;4.65;;;;;;;7.26;100.00;101963.72;5106478;28;20032;-53
2022/12/27 00:10:37;;;;;;;8.68;4.22;;;;;;;7.40;100.00;101963.25;5109474;28;20024;-52
2022/12/27 00:13:03;;;;;;;14.40;4.60;;;;;;;7.37;100.00;101960.88;5114993;28;20048;-50
2022/12/27 00:15:29;;;;;;;14.10;4.65;;;;;;;7.34;100.00;101960.31;5115858;28;20032;-50
2022/12/27 00:17:55;;;;;;;16.13;5.20;;;;;;;7.32;100.00;101968.47;5108238;28;20281;-50
2022/12/27 00:20:20;;;;;;;15.47;5.40;;;;;;;7.59;100.00;101969.47;5108740;28;20040;-51
2022/12/27 00:22:46;;;;;;;16.47;4.53;;;;;;;7.34;100.00;101976.28;5107945;28;20040;-48
2022/12/27 00:25:11;;;;;;;19.83;5.27;;;;;;;7.59;100.00;101964.97;5114025;28;20040;-54
2022/12/27 00:27:37;;;;;;;10.82;5.18;;;;;;;7.51;100.00;101964.88;5111121;28;20024;-52
2022/12/27 00:30:03;;;;;;;14.15;5.50;;;;;;;7.46;100.00;101977.81;5107862;28;20036;-49
2022/12/27 00:32:29;;;;;;;15.68;5.28;;;;;;;7.17;100.00;101978.75;5110763;28;20043;-50
2022/12/27 00:34:55;;;;;;;18.05;5.28;;;;;;;7.36;100.00;101991.16;5109294;28;20028;-54
2022/12/27 00:37:20;;;;;;;12.68;5.30;;;;;;;7.39;100.00;101974.06;5114214;28;20032;-53
2022/12/27 00:39:46;;;;;;;14.97;4.83;;;;;;;7.28;100.00;101983.88;5117828;28;21102;-55
2022/12/27 00:42:12;;;;;;;21.45;4.80;;;;;;;7.24;100.00;101990.47;5110691;28;20024;-52
2022/12/27 00:44:38;;;;;;;12.15;4.00;;;;;;;7.06;100.00;101984.22;5114857;28;20036;-54
2022/12/27 00:47:03;;;;;;;11.97;5.17;;;;;;;7.35;100.00;101978.81;5113920;28;20031;-53
2022/12/27 00:49:29;;;;;;;17.30;5.47;;;;;;;7.40;100.00;101989.03;5115617;28;20039;-49
2022/12/27 00:51:54;;;;;;;12.17;4.77;;;;;;;7.39;100.00;101998.00;5118939;28;20031;-49
2022/12/27 00:54:20;;;;;;;16.58;6.93;;;;;;;7.54;100.00;102001.84;5116167;28;20039;-49
2022/12/27 00:56:46;;;;;;;23.83;7.40;;;;;;;7.67;100.00;102006.00;5117221;28;20989;-52
2022/12/27 00:59:11;;;;;;;20.80;4.80;;;;;;;7.54;100.00;102001.03;5112608;28;20082;-53
2022/12/27 01:01:38;;;;;;;18.00;5.90;;;;;;;7.48;100.00;101999.78;5113745;28;20066;-53
2022/12/27 01:04:03;;;;;;;13.02;4.20;;;;;;;7.42;100.00;102009.19;5107959;28;20116;-50
2022/12/27 01:06:32;;;;;;;14.25;4.95;;;;;;;7.71;100.00;102004.72;5116589;28;20035;-49
2022/12/27 01:08:58;;;;;;;17.70;4.88;;;;;;;7.87;100.00;102006.75;5110381;28;20055;-49
2022/12/27 01:11:27;;;;;;;16.70;5.40;;;;;;;7.52;100.00;101998.50;5113806;28;20036;-51
2022/12/27 01:13:57;;;;;;;10.77;5.35;;;;;;;7.36;100.00;102003.59;5114978;28;20035;-51
2022/12/27 01:16:23;;;;;;;18.48;5.38;;;;;;;7.62;100.00;102002.97;5116890;28;20036;-53
2022/12/27 01:18:49;;;;;;;;;;;;;;;7.40;100.00;102013.81;5112358;28;20058;-54
2022/12/27 01:21:17;;;;;;;16.20;4.83;;;;;;;7.44;100.00;102025.84;5117274;28;19912;-54
2022/12/27 01:23:43;;;;;;;15.00;5.15;;;;;;;7.51;100.00;102023.44;5113066;28;20288;-51
2022/12/27 01:26:18;;;;;;;14.43;6.07;;;;;;;7.41;100.00;102030.63;5114323;28;20052;-50
2022/12/27 01:28:45;;;;;;;16.33;6.10;;;;;;;7.56;100.00;102029.16;5111726;28;20055;-54
2022/12/27 01:31:14;;;;;;;14.27;5.25;;;;;;;7.41;100.00;102027.97;5110966;28;20036;-51
2022/12/27 01:33:39;;;;;;;15.15;5.32;;;;;;;7.73;100.00;102032.03;5112583;28;20047;-53
2022/12/27 01:36:13;;;;;;;23.03;5.80;;;;;;;7.53;100.00;102031.28;5116446;28;20060;-53
2022/12/27 01:38:41;;;;;;;14.35;5.55;;;;;;;7.60;100.00;102035.88;5115210;28;20040;-53
2022/12/27 01:43:56;;;;;;;16.45;5.00;;;;;;;7.80;100.00;102040.28;5120021;28;20066;-53
2022/12/27 01:46:21;;;;;;;22.43;6.17;;;;;;;7.79;100.00;102050.09;5118223;28;20036;-49
2022/12/27 01:48:47;;;;;;;26.03;4.87;;;;;;;7.77;100.00;102049.41;5106410;28;20044;-55
2022/12/27 01:51:13;;;;;;;25.40;5.80;;;;;;;7.93;100.00;102055.94;5120062;28;20035;-54
2022/12/27 01:53:42;;;;;;;11.95;4.65;;;;;;;7.43;100.00;102061.44;5122063;28;20032;-54
2022/12/27 01:56:16;;;;;;;15.57;4.60;;;;;;;7.93;100.00;102061.25;5118883;28;20032;-50
2022/12/27 01:58:45;;;;;;;11.65;4.95;;;;;;;7.94;100.00;102062.94;5120868;28;20036;-53
2022/12/27 02:01:16;;;;;;;15.48;5.30;;;;;;;7.86;100.00;102072.50;5115242;28;20067;-53
2022/12/27 02:03:49;;;;;;;13.45;3.75;;;;;;;8.07;100.00;102068.75;5119354;28;20103;-50
2022/12/27 02:06:16;;;;;;;10.43;2.63;;;;;;;8.07;100.00;102067.91;5120160;28;20035;-51
2022/12/27 02:08:54;;;;;;;4.70;2.45;;;;;;;7.89;100.00;102074.88;5117597;28;20028;-50
2022/12/27 02:11:49;;;;;;;9.85;2.63;;;;;;;8.16;100.00;102057.19;5123367;28;20043;-50
2022/12/27 02:14:11;;;;;;;6.75;2.40;;;;;;;7.72;100.00;102070.31;5118619;28;20111;-51
2022/12/27 02:16:36;;;;;;;9.40;2.40;;;;;;;7.93;100.00;102083.38;5120959;28;20073;-49
2022/12/27 02:19:07;;;;;;;6.85;2.33;;;;;;;7.89;100.00;102061.56;5120922;28;20035;-49
2022/12/27 02:21:54;;;;;;;13.50;4.32;;;;;;;7.82;100.00;102055.13;5116369;28;20038;-49
2022/12/27 02:24:41;;;;;;;11.40;4.55;;;;;;;7.78;100.00;102061.72;5119849;28;20028;-49
2022/12/27 02:27:24;;;;;;;13.32;4.07;;;;;;;7.90;100.00;102073.03;5117882;28;20032;-49
2022/12/27 02:30:07;;;;;;;18.35;4.38;;;;;;;7.85;100.00;102075.31;5117534;28;20114;-53
2022/12/27 02:32:41;;;;;;;14.20;5.07;;;;;;;8.07;100.00;102081.22;5123231;28;20036;-48
2022/12/27 02:35:25;;;;;;;10.77;4.43;;;;;;;7.80;100.00;102085.56;5122629;28;20047;-50
2022/12/27 02:37:56;;;;;;;11.85;4.32;;;;;;;7.56;100.00;102090.41;5119740;28;20058;-55
2022/12/27 02:54:55;;;;;;;12.13;4.38;;;;;;;7.99;100.00;102104.13;5120277;28;20040;-53
2022/12/27 02:57:42;;;;;;;11.85;4.40;;;;;;;8.05;100.00;102102.69;5118584;28;20024;-55
2022/12/27 03:03:29;;;;;;;13.77;5.07;;;;;;;8.00;100.00;102094.31;5115787;28;20034;-48
2022/12/27 03:06:41;;;;;;;19.23;4.22;;;;;;;7.91;100.00;102096.03;5120900;28;20040;-49
2022/12/27 03:18:19;;;;;;;12.52;5.18;;;;;;;7.84;100.00;102090.47;5114771;28;20051;-53
2022/12/27 03:26:21;;;;;;;16.73;5.80;;;;;;;7.71;100.00;102095.25;5117813;28;20032;-52
2022/12/27 03:34:31;;;;;;;14.00;4.95;;;;;;;7.66;100.00;102102.84;5120350;28;20104;-52
2022/12/27 03:40:05;;;;;;;15.95;4.68;;;;;;;7.67;100.00;102115.19;5117847;28;20036;-57
2022/12/27 03:46:32;;;;;;;13.48;4.82;;;;;;;7.49;100.00;102123.91;5121542;28;20031;-55
2022/12/27 03:48:10;;;;;;;15.38;6.15;;;;;;;7.74;100.00;102125.13;5116911;28;20040;-56
2022/12/27 03:50:49;;;;;;;20.40;5.40;;;;;;;7.58;100.00;102123.03;5119726;28;20103;-51
2022/12/27 03:53:27;;;;;;;15.68;5.35;;;;;;;7.44;100.00;102142.13;5120255;28;20043;-53
2022/12/27 03:55:53;;;;;;;11.73;4.70;;;;;;;7.46;100.00;102133.00;5123276;28;20035;-52
2022/12/27 03:58:19;;;;;;;13.53;5.63;;;;;;;7.63;100.00;102135.94;5119104;28;20091;-50
2022/12/27 04:00:45;;;;;;;14.68;5.00;;;;;;;7.84;100.00;102122.44;5115845;28;20031;-54
2022/12/27 04:03:10;;;;;;;14.27;5.20;;;;;;;7.56;100.00;102138.31;5126001;28;20039;-51
2022/12/27 04:05:36;;;;;;;18.83;6.07;;;;;;;7.41;100.00;102137.09;5121004;28;20279;-52
2022/12/27 04:35:23;;;;;;;27.00;9.02;;;;;;;8.04;100.00;102148.97;5121658;28;20036;-55
2022/12/27 04:37:48;;;;;;;22.73;6.20;;;;;;;7.75;100.00;102171.22;5123324;28;20039;-55
2022/12/27 04:56:41;;;;;;;13.65;5.85;;;;;;;7.52;100.00;102150.25;5118741;28;20040;-56
2022/12/27 05:02:03;;;;;;;16.02;6.45;;;;;;;7.38;100.00;102162.16;5122248;28;20035;-55
2022/12/27 05:04:31;;;;;;;21.83;6.35;;;;;;;7.69;100.00;102150.50;5126585;28;20097;-55
2022/12/27 05:06:57;;;;;;;16.33;6.38;;;;;;;7.41;100.00;102155.72;5117791;28;20057;-57
2022/12/27 05:14:54;;;;;;;24.55;6.93;;;;;;;7.36;100.00;102166.78;5117317;28;20040;-56
2022/12/27 05:17:20;;;;;;;21.23;7.67;;;;;;;7.25;100.00;102165.13;5119479;28;20057;-54
2022/12/27 05:19:45;;;;;;;24.07;7.20;;;;;;;7.44;100.00;102169.56;5126932;28;20060;-53
2022/12/27 05:27:40;;;;;;;16.88;6.28;;;;;;;7.40;100.00;102172.69;5125519;28;20039;-56
2022/12/27 05:30:06;;;;;;;21.73;6.87;;;;;;;7.75;100.00;102181.88;5120828;28;20042;-52
2022/12/27 05:32:32;;;;;;;22.30;7.25;;;;;;;7.42;100.00;102186.69;5122595;28;20064;-54
2022/12/27 05:34:57;;;;;;;21.70;5.80;;;;;;;7.49;100.00;102187.78;5120355;28;20032;-55
2022/12/27 05:37:24;;;;;;;;;;;;;;;7.77;100.00;102184.41;5118975;28;20067;-53
2022/12/27 05:39:50;;;;;;;20.15;7.35;;;;;;;7.77;100.00;102195.88;5121310;28;19922;-55
2022/12/27 05:42:15;;;;;;;15.03;5.60;;;;;;;7.70;100.00;102190.28;5118351;28;20019;-52
2022/12/27 05:44:41;;;;;;;19.00;6.30;;;;;;;7.70;100.00;102195.59;5121804;28;20061;-54
2022/12/27 05:47:06;;;;;;;19.17;5.87;;;;;;;7.62;100.00;102200.00;5121923;28;20032;-50
2022/12/27 05:49:32;;;;;;;19.33;5.75;;;;;;;7.63;100.00;102209.66;5121582;28;20106;-57
2022/12/27 05:51:57;;;;;;;24.77;5.27;;;;;;;7.42;100.00;102210.66;5084151;28;20040;-51
2022/12/27 05:54:23;;;;;;;12.18;3.92;;;;;;;7.31;100.00;102206.31;5119865;28;20077;-53
2022/12/27 05:56:48;;;;;;;15.90;5.53;;;;;;;7.45;100.00;102202.38;5123393;28;20043;-55
2022/12/27 05:59:14;;;;;;;24.23;5.57;;;;;;;7.59;100.00;102212.56;5117975;28;20284;-52
2022/12/27 06:01:39;;;;;;;14.30;5.93;;;;;;;7.49;100.00;102203.78;5122066;28;20108;-54
2022/12/27 06:04:04;;;;;;;13.80;4.73;;;;;;;7.23;100.00;102200.81;5122454;28;20036;-55
2022/12/27 06:06:32;;;;;;;19.27;4.90;;;;;;;7.25;100.00;102197.06;5121629;28;20047;-55
2022/12/27 06:08:57;;;;;;;21.80;5.53;;;;;;;7.37;100.00;102199.56;5120949;28;20032;-52
2022/12/27 06:11:23;;;;;;;16.40;5.10;;;;;;;7.41;100.00;102201.81;5123547;28;20051;-52
2022/12/27 06:13:52;;;;;;;16.70;4.87;;;;;;;7.52;100.00;102211.47;5119634;28;20058;-51
2022/12/27 06:16:19;;;;;;;20.10;5.05;;;;;;;7.29;100.00;102202.94;5123594;28;20024;-52
2022/12/27 06:18:44;;;;;;;;;;;;;;;7.44;100.00;102208.69;5115060;28;20085;-53
2022/12/27 06:21:16;;;;;;;18.67;5.33;;;;;;;7.24;100.00;102206.03;5120046;28;19912;-53
2022/12/27 06:23:46;;;;;;;20.23;6.82;;;;;;;7.26;100.00;102208.53;5120673;28;20051;-51
2022/12/27 06:26:15;;;;;;;25.15;5.18;;;;;;;7.18;100.00;102217.22;5099716;28;20036;-55
2022/12/27 06:28:40;;;;;;;27.92;6.15;;;;;;;7.33;100.00;102215.00;5118057;28;20039;-53
2022/12/27 06:31:08;;;;;;;22.52;5.50;;;;;;;7.36;100.00;102220.03;5120041;28;20040;-54
2022/12/27 06:33:34;;;;;;;20.10;6.72;;;;;;;7.12;100.00;102223.94;5111030;28;20051;-55
2022/12/27 06:36:08;;;;;;;22.70;5.10;;;;;;;7.21;100.00;102232.06;5114766;28;20036;-56
2022/12/27 06:38:35;;;;;;;20.38;4.45;;;;;;;7.14;100.00;102229.09;5113910;28;20058;-55
2022/12/27 06:41:02;;;;;;;18.52;4.90;;;;;;;7.11;100.00;102242.69;5117326;28;20042;-51
2022/12/27 06:43:29;;;;;;;17.38;4.47;;;;;;;7.23;100.00;102222.09;5116550;28;20028;-53
2022/12/27 06:45:56;;;;;;;22.42;4.93;;;;;;;7.17;100.00;102232.34;5115950;28;20028;-55
2022/12/27 06:48:23;;;;;;;17.48;5.43;;;;;;;7.05;100.00;102229.94;5111264;28;20059;-53
2022/12/27 06:50:48;;;;;;;14.48;4.20;;;;;;;7.38;100.00;102223.38;5121219;28;20058;-53
2022/12/27 06:53:14;;;;;;;12.87;4.13;;;;;;;7.20;100.00;102228.56;5118939;28;20031;-52
2022/12/27 06:55:39;;;;;;;21.53;5.00;;;;;;;7.18;100.00;102238.50;5115835;28;20031;-54
2022/12/27 06:58:05;;;;;;;14.37;4.30;;;;;;;7.16;100.00;102233.31;5117810;28;20279;-52
2022/12/27 07:00:30;;;;;;;16.77;4.57;;;;;;;7.25;100.00;102231.66;5116931;28;20032;-54
2022/12/27 07:02:56;;;;;;;13.80;4.63;;;;;;;7.50;100.00;102228.59;5117503;28;20028;-53
2022/12/27 07:05:21;;;;;;;12.77;4.50;;;;;;;7.43;100.00;102233.63;5119627;28;20275;-50
2022/12/27 07:07:47;;;;;;;20.10;3.80;;;;;;;7.36;100.00;102235.13;5114304;28;20032;-53
2022/12/27 07:10:12;;;;;;;21.23;5.70;;;;;;;7.52;100.00;102239.94;5116609;28;20040;-54
2022/12/27 07:12:38;;;;;;;14.95;5.68;;;;;;;7.49;100.00;102241.03;5118812;28;20066;-53
2022/12/27 07:15:07;;;;;;;20.23;5.90;;;;;;;7.38;100.00;102250.00;5118955;28;20039;-54
2022/12/27 07:17:36;;;;;;;19.00;5.80;;;;;;;7.35;100.00;102252.09;5098123;28;20029;-53
2022/12/27 07:20:04;;;;;;;17.52;6.18;;;;;;;7.49;100.00;102259.66;5122282;28;20032;-54
2022/12/27 07:22:29;;;;;;;19.58;6.10;;;;;;;7.47;100.00;102259.78;5116213;28;20020;-53
2022/12/27 07:24:55;;;;;;;20.50;6.67;;;;;;;7.52;100.00;102256.72;5118683;28;20043;-52
2022/12/27 07:27:20;;;;;;;20.35;7.88;;;;;;;7.62;100.00;102259.38;5110850;28;20032;-52
2022/12/27 07:29:46;;;;;;;21.70;6.90;;;;;;;7.53;100.00;102253.09;5117560;28;20035;-52
2022/12/27 07:32:12;;;;;;;20.88;8.13;;;;;;;7.39;100.00;102256.19;5114746;28;20059;-52
2022/12/27 07:34:38;;;;;;;22.40;8.32;;;;;;;7.38;100.00;102257.13;5115794;28;20047;-50
2022/12/27 07:37:03;;;;;;;15.53;7.53;;;;;;;7.23;100.00;102257.56;5113396;28;20047;-52
2022/12/27 07:39:29;;;;;;;19.50;9.10;;;;;;;7.44;100.00;102272.56;5119576;28;20091;-52
2022/12/27 07:41:54;;;;;;;26.37;8.40;;;;;;;7.57;100.00;102269.63;5114862;28;20028;-53
2022/12/27 07:44:20;;;;;;;30.57;9.63;;;;;;;7.31;100.00;102276.31;5120014;28;20269;-51
2022/12/27 07:46:45;;;;;;;21.87;8.17;;;;;;;7.18;100.00;102275.75;5113483;28;20032;-51
2022/12/27 07:49:11;;;;;;;26.00;9.73;;;;;;;7.36;100.00;102283.03;5117852;28;20058;-52
2022/12/27 07:51:36;;;;;;;21.05;7.50;;;;;;;7.21;100.00;102278.13;5108830;28;20032;-49
2022/12/27 07:54:03;;;;;;;27.05;10.15;;;;;;;7.00;100.00;102275.56;5119198;28;20046;-51
2022/12/27 07:56:28;;;;;;;33.07;9.90;;;;;;;7.08;100.00;102269.56;5112647;28;20059;-49
2022/12/27 07:58:59;;;;;;;22.98;8.38;;;;;;;7.13;100.00;102283.28;5096296;28;20043;-49
2022/12/27 08:01:28;;;;;;;21.20;8.20;;;;;;;7.40;100.00;102290.63;5109818;28;20020;-52
2022/12/27 08:03:54;;;;;;;23.13;9.88;;;;;;;7.28;100.00;102292.56;5115292;28;20051;-51
2022/12/27 08:06:26;;;;;;;;;;;;;;;7.46;100.00;102295.38;5114083;28;20095;-52
2022/12/27 08:08:53;;;;;;;19.20;9.07;;;;;;;7.50;100.00;102298.63;5108793;28;19912;-52
2022/12/27 08:11:19;;;;;;;26.80;9.85;;;;;;;7.24;100.00;102295.63;5111080;28;20040;-51
2022/12/27 08:13:45;;;;;;;24.20;9.25;;;;;;;7.36;100.00;102304.34;5112576;28;20028;-53
2022/12/27 08:16:17;;;;;;;21.42;9.55;;;;;;;7.31;100.00;102299.44;5111022;28;20041;-51
2022/12/27 08:18:42;;;;;;;19.08;8.95;;;;;;;7.34;100.00;102298.31;5112561;28;20133;-51
2022/12/27 08:21:07;;;;;;;22.67;8.00;;;;;;;7.16;100.00;102310.47;5113145;28;20044;-53
2022/12/27 08:23:33;;;;;;;32.17;9.30;;;;;;;7.21;100.00;102312.72;5115144;28;20043;-50
2022/12/27 08:25:58;;;;;;;20.67;7.63;;;;;;;7.36;100.00;102307.00;5114405;28;20056;-52
2022/12/27 08:28:24;;;;;;;19.87;8.60;;;;;;;7.27;100.00;102309.53;5112707;28;20036;-55
2022/12/27 08:30:50;;;;;;;28.55;9.82;;;;;;;7.41;100.00;102310.13;5114551;28;20287;-52
2022/12/27 08:33:16;;;;;;;19.07;7.90;;;;;;;7.50;100.00;102314.59;5116893;28;20055;-50
2022/12/27 08:35:43;;;;;;;19.97;7.33;;;;;;;7.47;100.00;102313.03;5114299;28;20275;-55
2022/12/27 08:38:09;;;;;;;17.75;8.15;;;;;;;7.57;100.00;102312.22;5117157;28;20061;-54
2022/12/27 08:40:40;;;;;;;25.65;7.60;;;;;;;7.74;100.00;102313.34;5115787;28;20036;-54
2022/12/27 08:43:06;;;;;;;21.80;7.70;;;;;;;7.78;100.00;102314.75;5115181;28;20176;-51
2022/12/27 08:45:32;;;;;;;;;;;;;;;7.80;100.00;102318.09;5117088;28;20048;-52
2022/12/27 08:47:58;;;;;;;16.50;6.67;;;;;;;7.92;100.00;102321.47;5113066;28;19931;-54
2022/12/27 08:50:24;;;;;;;;;;;;;;;7.72;100.00;102325.97;5122196;28;20035;-54
2022/12/27 08:52:49;;;;;;;27.80;8.00;;;;;;;7.81;100.00;102322.44;5115571;28;19928;-51
2022/12/27 08:55:14;;;;;;;14.77;6.63;;;;;;;7.95;100.00;102320.34;5115469;28;20036;-52
2022/12/27 08:57:40;;;;;;;17.70;7.43;;;;;;;8.03;100.00;102309.81;5117363;28;20043;-54
2022/12/27 09:00:07;;;;;;;17.17;7.40;;;;;;;7.51;100.00;102312.78;5120483;28;20032;-52
2022/12/27 09:02:32;;;;;;;22.30;7.50;;;;;;;7.93;100.00;102314.31;5120290;28;20864;-54
2022/12/27 09:04:58;;;;;;;16.75;7.65;;;;;;;7.80;100.00;102304.78;5120306;28;20036;-53
2022/12/27 09:07:24;;;;;;;26.37;8.87;;;;;;;7.75;100.00;102320.34;5120781;28;20064;-50
2022/12/27 09:09:49;;;;;;;24.27;10.80;;;;;;;7.84;100.00;102314.19;5116456;28;20265;-52
2022/12/27 09:12:14;;;;;;;21.37;7.77;;;;;;;8.04;100.00;102316.81;5117913;28;20035;-49
2022/12/27 09:14:40;;;;;;;20.90;8.88;;;;;;;8.15;100.00;102311.34;5120388;28;20035;-56
2022/12/27 09:17:08;;;;;;;29.60;9.87;;;;;;;8.09;100.00;102311.94;5116780;28;20042;-54
2022/12/27 09:19:34;;;;;;;26.77;8.27;;;;;;;8.14;100.00;102314.16;5121363;28;20054;-54
2022/12/27 09:21:59;;;;;;;28.75;8.77;;;;;;;8.30;100.00;102318.88;5123116;28;20019;-54
2022/12/27 09:24:25;;;;;;;13.97;6.43;;;;;;;8.21;100.00;102325.94;5123771;28;20043;-56
2022/12/27 09:26:51;;;;;;;14.60;6.17;;;;;;;8.41;100.00;102332.06;5118701;28;20062;-56
2022/12/27 09:29:16;;;;;;;22.73;7.00;;;;;;;8.60;100.00;102335.69;5120086;28;20295;-54
2022/12/27 09:31:42;;;;;;;19.08;7.85;;;;;;;8.59;100.00;102336.69;5123133;28;20048;-52
2022/12/27 09:34:12;;;;;;;22.40;6.75;;;;;;;8.54;100.00;102337.09;5120700;28;20050;-53
2022/12/27 09:36:38;;;;;;;19.90;6.85;;;;;;;8.51;100.00;102332.06;5116180;28;20065;-53
2022/12/27 09:39:03;;;;;;;13.25;6.90;;;;;;;9.21;100.00;102337.94;5110342;28;20123;-52
2022/12/27 09:41:52;;;;;;;15.43;6.10;;;;;;;10.26;100.00;102332.88;5108972;28;20032;-53
2022/12/27 09:44:42;;;;;;;27.23;6.35;;;;;;;10.65;100.00;102330.81;5110110;28;20126;-52
2022/12/27 09:47:22;;;;;;;16.02;5.35;;;;;;;11.33;100.00;102335.25;5111468;28;20036;-53
2022/12/27 09:49:52;;;;;;;16.70;5.47;;;;;;;11.38;100.00;102347.31;5102955;28;20084;-56
2022/12/27 09:52:27;;;;;;;15.27;5.17;;;;;;;11.47;100.00;102344.50;5112544;28;20026;-52
2022/12/27 09:55:11;;;;;;;13.27;4.30;;;;;;;11.51;100.00;102353.03;5108227;28;20264;-52
2022/12/27 09:57:40;;;;;;;10.93;4.30;;;;;;;11.53;100.00;102350.19;5111531;28;20269;-51
2022/12/27 10:00:20;;;;;;;21.73;4.80;;;;;;;11.79;100.00;102344.72;5111271;28;20280;-50
2022/12/27 10:02:47;;;;;;;13.50;4.10;;;;;;;11.40;100.00;102345.31;5114976;28;20261;-48
2022/12/27 10:05:26;;;;;;;11.00;4.70;;;;;;;12.05;100.00;102349.09;5117394;28;20284;-55
2022/12/27 10:08:06;;;;;;;9.47;4.23;;;;;;;11.91;100.00;102342.53;5118627;28;20294;-54
2022/12/27 10:10:38;;;;;;;10.67;4.80;;;;;;;11.75;100.00;102338.00;5108560;28;20280;-54
2022/12/27 10:13:48;;;;;;;18.03;5.70;;;;;;;12.62;100.00;102344.66;5110576;28;20277;-54
2022/12/27 10:16:16;;;;;;;12.50;4.97;;;;;;;12.42;100.00;102342.34;5093534;28;20339;-52
2022/12/27 10:18:48;;;;;;;11.47;5.30;;;;;;;12.88;100.00;102354.28;5102859;28;20281;-53
2022/12/27 10:21:23;;;;;;;18.80;5.00;;;;;;;13.66;100.00;102354.41;5111233;28;20272;-55
2022/12/27 10:24:19;;;;;;;16.10;4.77;;;;;;;13.56;100.00;102351.94;5108063;28;20635;-54
2022/12/27 10:26:45;;;;;;;14.03;4.70;;;;;;;13.41;100.00;102353.72;5111361;28;20292;-51
2022/12/27 10:29:23;;;;;;;14.20;4.17;;;;;;;13.54;100.00;102358.53;5109234;28;20280;-52
2022/12/27 10:31:49;;;;;;;13.23;5.80;;;;;;;13.79;100.00;102375.31;5109564;28;20058;-54
2022/12/27 10:34:16;;;;;;;10.23;4.03;;;;;;;13.78;100.00;102368.28;5107215;28;20268;-54
2022/12/27 10:36:44;;;;;;;10.53;5.00;;;;;;;14.47;100.00;102363.81;5109220;28;20273;-54
2022/12/27 10:39:25;;;;;;;;;;;;;;;13.85;100.00;102363.03;5112665;28;20440;-53
2022/12/27 10:42:10;;;;;;;11.43;3.97;;;;;;;13.40;100.00;102382.44;5108921;28;19969;-52
2022/12/27 10:44:37;;;;;;;11.87;4.67;;;;;;;12.95;100.00;102376.78;5108689;28;20292;-54
2022/12/27 10:47:03;;;;;;;14.10;4.73;;;;;;;13.25;100.00;102385.03;5112510;28;20272;-52
2022/12/27 10:49:31;;;;;;;10.77;5.17;;;;;;;13.51;100.00;102370.47;5112363;28;20034;-50
2022/12/27 10:52:06;;;;;;;8.53;3.80;;;;;;;14.19;100.00;102370.63;5112758;28;20031;-52
2022/12/27 10:54:32;;;;;;;11.87;4.47;;;;;;;13.85;100.00;102366.56;5111454;28;20311;-49
2022/12/27 10:57:29;;;;;;;9.80;4.43;;;;;;;14.13;100.00;102362.44;5108648;28;20286;-50
2022/12/27 11:00:16;;;;;;;9.17;4.37;;;;;;;13.90;100.00;102363.31;5106021;28;20036;-56
2022/12/27 11:02:51;;;;;;;19.60;5.67;;;;;;;14.58;100.00;102362.53;5111040;28;20339;-53
2022/12/27 11:05:26;;;;;;;13.70;4.83;;;;;;;14.22;100.00;102361.38;5103897;28;20269;-54
2022/12/27 11:07:52;;;;;;;17.03;5.13;;;;;;;14.13;100.00;102366.00;5106024;28;20276;-51
2022/12/27 11:10:20;;;;;;;;;;;;;;;14.80;100.00;102370.75;5108750;28;20257;-54
2022/12/27 11:12:57;;;;;;;;;;;;;;;15.58;100.00;102371.03;5106717;28;19924;-53
2022/12/27 11:15:24;;;;;;;11.20;3.95;;;;;;;16.52;100.00;102370.19;5114297;28;19939;-53
2022/12/27 11:17:54;;;;;;;16.73;4.60;;;;;;;16.05;100.00;102362.59;5117009;28;20132;-54
2022/12/27 11:20:27;;;;;;;17.27;4.37;;;;;;;16.05;100.00;102366.13;5105303;28;20277;-52
2022/12/27 11:23:10;;;;;;;15.60;3.93;;;;;;;15.98;100.00;102356.31;5105351;28;20038;-54
2022/12/27 11:25:59;;;;;;;11.53;4.07;;;;;;;16.10;100.00;102346.63;5113600;28;20036;-53
2022/12/27 11:28:37;;;;;;;10.23;4.00;;;;;;;16.67;100.00;102346.59;5115296;28;20035;-51
2022/12/27 11:31:05;;;;;;;12.03;3.60;;;;;;;16.42;100.00;102344.38;5095394;28;20048;-54
2022/12/27 11:33:36;;;;;;;13.37;3.53;;;;;;;17.40;97.00;102339.00;5112949;28;20036;-52
2022/12/27 11:36:02;;;;;;;9.90;3.40;;;;;;;16.17;100.00;102344.84;5114049;28;20115;-55
2022/12/27 11:38:32;;;;;;;;;;;;;;;16.90;100.00;102332.78;5119156;28;20038;-53
2022/12/27 11:41:19;;;;;;;9.77;3.10;;;;;;;16.55;98.73;102331.97;5111321;28;19912;-55
2022/12/27 11:44:09;;;;;;;9.98;3.03;;;;;;;17.52;95.30;102323.81;5116453;28;20031;-54
2022/12/27 11:47:03;;;;;;;8.93;3.57;;;;;;;17.49;92.65;102310.72;5122416;28;20046;-51
2022/12/27 11:49:39;;;;;;;7.03;3.07;;;;;;;17.37;92.30;102313.19;5115117;28;20054;-56
2022/12/27 11:52:33;;;;;;;11.00;2.90;;;;;;;16.94;95.20;102314.31;5116973;28;20036;-54
2022/12/27 11:55:08;;;;;;;9.67;3.10;;;;;;;16.99;94.71;102319.97;5114442;28;20035;-54
2022/12/27 11:57:59;;;;;;;11.80;2.73;;;;;;;17.02;93.86;102311.44;5119282;28;20020;-53
2022/12/27 12:00:32;;;;;;;13.07;3.57;;;;;;;18.00;90.65;102308.47;5113695;28;20036;-53
2022/12/27 12:03:28;;;;;;;13.70;3.30;;;;;;;17.97;87.85;102312.41;5120224;28;20027;-53
2022/12/27 12:06:07;;;;;;;11.20;3.73;;;;;;;18.28;86.54;102310.13;5115287;28;20077;-54
2022/12/27 12:08:40;;;;;;;11.80;3.33;;;;;;;18.70;83.84;102301.66;5106799;28;20032;-50
2022/12/27 12:11:23;;;;;;;13.30;3.30;;;;;;;18.88;79.52;102325.34;5114322;28;20066;-54
2022/12/27 12:14:44;;;;;;;9.60;2.93;;;;;;;19.62;78.66;102311.38;5115187;28;20096;-53
2022/12/27 12:17:39;;;;;;;12.57;3.70;;;;;;;19.78;76.46;102324.41;5111971;28;20114;-53
2022/12/27 12:20:16;;;;;;;7.73;3.20;;;;;;;19.66;76.74;102311.78;5105960;28;20048;-55
2022/12/27 12:23:08;;;;;;;9.87;3.47;;;;;;;18.93;76.54;102309.28;5114057;28;20027;-53
2022/12/27 12:26:01;;;;;;;13.43;2.90;;;;;;;17.67;83.87;102312.00;5108387;28;20066;-53
2022/12/27 12:28:45;;;;;;;8.37;3.17;;;;;;;16.44;94.38;102301.81;5105224;28;20062;-56
2022/12/27 12:31:34;;;;;;;11.30;3.33;;;;;;;15.13;100.00;102303.81;5108006;28;20028;-51
2022/12/27 12:34:24;;;;;;;7.10;2.70;;;;;;;14.75;100.00;102288.63;5104028;28;20048;-53
2022/12/27 12:37:07;;;;;;;12.63;4.33;;;;;;;14.48;100.00;102284.75;5109127;28;20036;-53
2022/12/27 12:39:39;;;;;;;16.17;4.63;;;;;;;14.51;100.00;102284.38;5113787;28;20275;-53
2022/12/27 12:42:35;;;;;;;10.87;4.90;;;;;;;14.72;100.00;102275.53;5119097;28;20280;-52
2022/12/27 12:45:39;;;;;;;11.27;4.43;;;;;;;15.36;100.00;102272.31;5118071;28;20292;-55
2022/12/27 12:48:05;;;;;;;11.20;4.13;;;;;;;15.57;100.00;102271.47;5120102;28;20276;-53
2022/12/27 12:51:19;;;;;;;7.93;2.97;;;;;;;15.14;100.00;102269.59;5121738;28;20287;-55
2022/12/27 12:53:47;;;;;;;9.07;2.73;;;;;;;14.77;100.00;102251.59;5026488;28;20046;-50
2022/12/27 12:56:27;;;;;;;11.53;2.90;;;;;;;14.35;100.00;102239.66;5113697;28;20310;-56
2022/12/27 12:59:22;;;;;;;10.97;3.40;;;;;;;15.31;100.00;102230.59;5117830;28;20272;-51
2022/12/27 13:02:03;;;;;;;12.40;3.90;;;;;;;15.67;100.00;102257.66;5117622;28;20272;-54
2022/12/27 13:04:40;;;;;;;11.13;3.23;;;;;;;16.19;100.00;102231.28;5118016;28;20283;-55
2022/12/27 13:07:08;;;;;;;8.48;3.25;;;;;;;17.68;98.23;102224.38;5116515;28;20273;-53
2022/12/27 13:09:51;;;;;;;7.73;2.53;;;;;;;17.95;91.67;102210.81;5118827;28;20024;-57
2022/12/27 13:12:58;;;;;;;8.53;2.63;;;;;;;17.29;93.75;102219.59;5121265;28;20023;-54
2022/12/27 13:15:57;;;;;;;10.77;3.70;;;;;;;16.49;98.51;102223.75;5089590;28;20050;-56
2022/12/27 13:18:30;;;;;;;8.10;3.53;;;;;;;16.97;97.97;102216.63;5116033;28;20028;-52
2022/12/27 13:21:12;;;;;;;10.73;4.00;;;;;;;15.51;100.00;102219.16;5112845;28;20043;-50
2022/12/27 13:24:06;;;;;;;9.30;3.67;;;;;;;14.62;100.00;102188.81;5109345;28;20080;-54